Time;durP1;ratioP1;P1;durP2;ratioP2;P2;SDS_P1;SDS_P2;PMS_P1;PMS_P2;Temp;Humidity;BMP_temperature;BMP_pressure;BME280_temperature;BME280_humidity;BME280_pressure;Samples;Min_cycle;Max_cycle;Signal;HPM_P1;HPM_P2
2021/03/02 00:00:30;;;;;;;23.97;15.20;;;3.90;70.80;;;;;;4995542;28;20511;-80
2021/03/02 00:02:57;;;;;;;27.13;14.80;;;4.10;70.90;;;;;;4996319;28;20453;-76
2021/03/02 00:05:23;;;;;;;26.57;16.10;;;3.90;71.40;;;;;;4991662;28;20464;-77
2021/03/02 00:07:50;;;;;;;28.50;15.20;;;4.00;71.80;;;;;;4994222;28;20612;-76
2021/03/02 00:10:16;;;;;;;28.07;14.90;;;3.80;71.80;;;;;;5006947;28;20960;-76
2021/03/02 00:12:43;;;;;;;28.40;16.50;;;3.80;72.30;;;;;;5004283;28;20448;-76
2021/03/02 00:15:12;;;;;;;26.93;16.67;;;3.90;72.80;;;;;;5011401;28;20456;-76
2021/03/02 00:17:47;;;;;;;23.57;15.43;;;3.80;72.50;;;;;;5002671;28;20492;-79
2021/03/02 00:20:15;;;;;;;29.07;16.50;;;3.80;73.20;;;;;;5000871;28;20450;-77
2021/03/02 00:22:56;;;;;;;22.97;16.10;;;3.70;73.20;;;;;;4993511;28;20444;-76
2021/03/02 00:25:26;;;;;;;27.93;15.77;;;3.60;73.30;;;;;;5000766;28;20461;-76
2021/03/02 00:27:54;;;;;;;29.87;16.00;;;3.60;74.00;;;;;;4997454;28;20532;-77
2021/03/02 00:30:21;;;;;;;26.23;15.70;;;3.70;74.30;;;;;;4996906;28;20485;-76
2021/03/02 00:32:50;;;;;;;26.53;15.30;;;3.70;74.30;;;;;;4986047;28;21013;-78
2021/03/02 00:35:17;;;;;;;24.60;15.77;;;3.60;74.50;;;;;;4995400;28;20456;-77
2021/03/02 00:37:47;;;;;;;28.47;16.30;;;3.50;74.60;;;;;;4999399;28;20462;-79
2021/03/02 00:40:14;;;;;;;29.10;16.60;;;3.50;75.00;;;;;;5004220;28;20462;-77
2021/03/02 00:42:40;;;;;;;25.40;15.93;;;3.60;75.10;;;;;;4994358;28;20449;-76
2021/03/02 00:45:08;;;;;;;23.90;15.07;;;3.50;75.30;;;;;;5007872;28;20496;-78
2021/03/02 00:47:34;;;;;;;25.20;16.03;;;3.50;75.60;;;;;;5012170;28;20947;-77
2021/03/02 00:50:02;;;;;;;22.77;15.47;;;3.50;75.90;;;;;;4992699;28;20532;-77
2021/03/02 00:52:28;;;;;;;27.43;15.73;;;3.50;75.70;;;;;;5016529;28;20474;-78
2021/03/02 00:54:54;;;;;;;27.63;17.50;;;3.40;76.20;;;;;;4999907;28;20508;-76
2021/03/02 00:57:21;;;;;;;25.40;15.83;;;3.40;76.40;;;;;;4998175;28;20484;-77
2021/03/02 00:59:47;;;;;;;28.10;16.87;;;3.30;77.00;;;;;;4999558;28;20532;-76
2021/03/02 01:02:13;;;;;;;24.83;16.73;;;3.30;77.20;;;;;;5004854;28;20982;-74
2021/03/02 01:04:40;;;;;;;26.53;16.83;;;3.30;77.50;;;;;;4995125;28;20537;-78
2021/03/02 01:07:07;;;;;;;27.50;16.50;;;3.20;77.20;;;;;;4999066;28;20999;-78
2021/03/02 01:09:34;;;;;;;27.33;17.00;;;3.20;78.00;;;;;;4995433;28;20464;-76
2021/03/02 01:12:01;;;;;;;27.93;18.03;;;3.20;77.80;;;;;;4996097;28;20532;-76
2021/03/02 01:14:28;;;;;;;29.03;16.90;;;3.10;78.70;;;;;;4995703;28;20459;-76
2021/03/02 01:16:55;;;;;;;31.43;17.00;;;3.10;78.40;;;;;;4994642;28;20485;-76
2021/03/02 01:19:21;;;;;;;28.27;17.43;;;3.20;78.50;;;;;;4994869;28;20990;-79
2021/03/02 01:21:48;;;;;;;29.73;17.90;;;3.10;78.40;;;;;;4993769;28;20516;-76
2021/03/02 01:24:16;;;;;;;26.00;16.27;;;3.10;79.90;;;;;;4993764;28;20456;-76
2021/03/02 01:26:42;;;;;;;27.77;16.33;;;3.00;78.70;;;;;;4995444;28;20531;-76
2021/03/02 01:29:09;;;;;;;25.10;16.53;;;3.00;80.10;;;;;;4993461;28;20476;-85
2021/03/02 01:31:35;;;;;;;29.70;17.13;;;3.00;80.30;;;;;;4993679;28;20475;-76
2021/03/02 01:34:02;;;;;;;28.00;17.70;;;3.00;80.10;;;;;;4992954;28;20463;-77
2021/03/02 01:36:28;;;;;;;28.73;17.90;;;2.90;81.40;;;;;;4983815;28;20441;-78
2021/03/02 01:38:55;;;;;;;30.43;18.13;;;3.00;81.00;;;;;;4991936;28;20456;-76
2021/03/02 01:41:22;;;;;;;29.83;18.03;;;2.90;81.60;;;;;;4996041;28;20535;-80
2021/03/02 01:43:48;;;;;;;30.50;17.70;;;2.90;80.50;;;;;;4999078;28;20460;-76
2021/03/02 01:46:15;;;;;;;29.23;18.07;;;3.00;81.80;;;;;;4994307;28;20541;-76
2021/03/02 01:48:42;;;;;;;35.93;18.53;;;2.90;82.20;;;;;;4995113;28;21018;-79
2021/03/02 01:51:09;;;;;;;32.87;20.40;;;2.90;82.00;;;;;;4994585;28;21016;-76
2021/03/02 01:53:35;;;;;;;30.33;19.57;;;2.70;82.70;;;;;;4992631;28;20512;-76
2021/03/02 01:56:02;;;;;;;34.10;19.40;;;2.60;83.50;;;;;;4992830;28;20453;-78
2021/03/02 01:58:30;;;;;;;34.03;19.07;;;2.60;84.30;;;;;;4993413;28;20467;-76
2021/03/02 02:00:59;;;;;;;32.83;19.70;;;2.50;84.20;;;;;;4992758;28;20465;-79
2021/03/02 02:03:36;;;;;;;31.20;19.27;;;2.40;85.20;;;;;;4994424;28;20451;-77
2021/03/02 02:06:09;;;;;;;37.63;20.03;;;2.60;86.40;;;;;;4991353;28;20536;-80
2021/03/02 02:08:46;;;;;;;30.73;18.40;;;2.40;85.10;;;;;;4985152;28;20539;-76
2021/03/02 02:11:22;;;;;;;32.33;19.43;;;2.50;87.00;;;;;;4987153;28;20447;-76
2021/03/02 02:13:57;;;;;;;30.97;19.00;;;2.40;86.90;;;;;;4995885;28;21144;-76
2021/03/02 02:16:25;;;;;;;32.83;19.50;;;2.30;87.20;;;;;;4997780;28;20448;-76
2021/03/02 02:18:53;;;;;;;31.07;19.27;;;2.30;87.70;;;;;;4991784;28;20476;-76
2021/03/02 02:21:25;;;;;;;37.47;21.50;;;2.30;88.60;;;;;;4985894;28;20459;-76
2021/03/02 02:24:07;;;;;;;38.87;21.70;;;2.30;88.00;;;;;;4992096;28;21408;-76
2021/03/02 02:26:45;;;;;;;30.93;20.20;;;2.20;89.30;;;;;;4990633;28;20536;-76
2021/03/02 02:29:16;;;;;;;31.90;17.97;;;2.20;90.40;;;;;;4989581;28;20823;-82
2021/03/02 02:31:45;;;;;;;36.30;20.67;;;2.20;90.10;;;;;;4984816;28;20484;-77
2021/03/02 02:34:14;;;;;;;35.23;21.60;;;2.00;90.00;;;;;;4992807;28;20472;-76
2021/03/02 02:36:41;;;;;;;35.80;20.90;;;2.00;91.40;;;;;;4991658;28;20443;-76
2021/03/02 02:39:07;;;;;;;36.53;21.47;;;2.00;91.60;;;;;;4999220;28;20449;-80
2021/03/02 02:41:34;;;;;;;40.57;22.30;;;2.20;91.20;;;;;;4994418;28;20455;-76
2021/03/02 02:44:02;;;;;;;32.17;20.30;;;2.30;90.80;;;;;;4992820;28;20457;-77
2021/03/02 02:46:28;;;;;;;40.27;23.40;;;2.20;90.60;;;;;;4991919;28;20460;-76
2021/03/02 02:48:58;;;;;;;43.60;22.33;;;2.20;90.30;;;;;;4993349;28;20444;-76
2021/03/02 02:51:25;;;;;;;40.90;22.40;;;2.20;90.40;;;;;;4992242;28;20455;-76
2021/03/02 02:53:53;;;;;;;39.43;22.63;;;2.00;90.90;;;;;;4991923;28;20444;-78
2021/03/02 02:56:20;;;;;;;37.97;21.60;;;2.00;91.50;;;;;;4989146;28;20535;-76
2021/03/02 02:59:00;;;;;;;37.33;23.40;;;2.00;92.10;;;;;;4982850;28;20545;-79
2021/03/02 03:01:31;;;;;;;37.77;22.90;;;2.10;92.00;;;;;;4994415;28;20540;-76
2021/03/02 03:03:58;;;;;;;46.50;24.20;;;2.10;92.20;;;;;;4990675;28;20575;-75
2021/03/02 03:06:26;;;;;;;45.77;24.03;;;2.00;92.30;;;;;;4990062;28;20455;-77
2021/03/02 03:08:54;;;;;;;40.73;23.70;;;1.80;92.50;;;;;;4979297;28;20456;-76
2021/03/02 03:11:24;;;;;;;37.87;23.80;;;1.90;94.40;;;;;;4996351;28;20481;-76
2021/03/02 03:13:51;;;;;;;44.00;22.80;;;1.80;93.70;;;;;;4993204;28;20518;-80
2021/03/02 03:16:21;;;;;;;40.27;23.80;;;1.70;93.90;;;;;;4995040;28;21028;-79
2021/03/02 03:18:52;;;;;;;50.80;25.50;;;1.90;97.00;;;;;;4992249;28;20947;-76
2021/03/02 03:21:19;;;;;;;41.87;24.77;;;1.70;95.50;;;;;;4992359;28;20863;-76
2021/03/02 03:23:47;;;;;;;45.43;25.20;;;1.80;97.20;;;;;;4991549;28;20550;-76
2021/03/02 03:26:15;;;;;;;44.67;24.30;;;1.90;96.20;;;;;;4993037;28;20451;-77
2021/03/02 03:28:42;;;;;;;46.50;26.47;;;1.80;94.70;;;;;;4995594;28;20454;-77
2021/03/02 03:31:12;;;;;;;47.83;26.13;;;1.90;95.50;;;;;;4996812;28;20475;-76
2021/03/02 03:33:40;;;;;;;46.47;27.20;;;1.70;96.20;;;;;;4992532;28;20543;-76
2021/03/02 03:36:08;;;;;;;46.80;26.87;;;1.70;98.40;;;;;;4995105;28;20440;-77
2021/03/02 03:38:35;;;;;;;45.63;27.27;;;1.70;96.80;;;;;;5002178;28;20810;-81
2021/03/02 03:41:01;;;;;;;48.03;24.63;;;1.60;96.60;;;;;;4995239;28;20950;-81
2021/03/02 03:43:28;;;;;;;47.10;27.47;;;1.60;97.80;;;;;;4994773;28;20545;-78
2021/03/02 03:45:54;;;;;;;48.73;28.40;;;1.50;99.40;;;;;;4994437;28;20483;-76
2021/03/02 03:48:21;;;;;;;48.37;29.17;;;1.60;99.90;;;;;;4993392;28;20588;-76
2021/03/02 03:50:47;;;;;;;45.33;26.30;;;1.50;96.90;;;;;;4993885;28;20558;-76
2021/03/02 03:53:17;;;;;;;53.37;28.33;;;1.40;98.30;;;;;;4995326;28;20925;-77
2021/03/02 03:55:45;;;;;;;53.27;28.87;;;1.40;99.90;;;;;;4993319;28;20462;-81
2021/03/02 03:58:17;;;;;;;45.40;25.93;;;1.30;99.90;;;;;;4994769;28;20456;-84
2021/03/02 04:00:44;;;;;;;40.87;25.47;;;1.30;99.90;;;;;;4995055;28;20456;-83
2021/03/02 04:03:11;;;;;;;48.60;27.40;;;1.20;99.90;;;;;;4993064;28;21067;-77
2021/03/02 04:05:39;;;;;;;50.57;27.23;;;1.20;99.90;;;;;;4990733;28;20491;-76
2021/03/02 04:08:06;;;;;;;50.50;26.90;;;1.20;99.90;;;;;;4996526;28;20456;-77
2021/03/02 04:10:33;;;;;;;48.20;26.17;;;1.20;99.90;;;;;;4999245;28;20500;-78
2021/03/02 04:13:09;;;;;;;56.10;27.63;;;1.20;99.90;;;;;;4999515;28;20452;-76
2021/03/02 04:15:36;;;;;;;49.70;27.17;;;1.20;99.90;;;;;;4997076;28;20447;-76
2021/03/02 04:18:03;;;;;;;52.13;28.60;;;1.10;99.90;;;;;;4994797;28;20471;-79
2021/03/02 04:20:29;;;;;;;55.80;29.33;;;1.10;99.90;;;;;;4992251;28;20877;-77
2021/03/02 04:22:56;;;;;;;48.37;28.47;;;1.00;99.90;;;;;;4994586;28;20933;-76
2021/03/02 04:25:26;;;;;;;54.17;29.17;;;0.90;99.90;;;;;;4995248;28;20451;-77
2021/03/02 04:27:53;;;;;;;55.07;29.43;;;1.00;99.90;;;;;;4996468;28;20443;-77
2021/03/02 04:30:20;;;;;;;54.10;29.43;;;0.90;99.90;;;;;;4997051;28;20519;-77
2021/03/02 04:32:46;;;;;;;57.83;29.67;;;0.90;99.90;;;;;;4997175;28;20456;-76
2021/03/02 04:35:14;;;;;;;50.73;29.60;;;0.90;99.90;;;;;;4995428;28;20452;-77
2021/03/02 04:37:40;;;;;;;58.57;28.47;;;0.90;99.90;;;;;;4996431;28;20456;-77
2021/03/02 04:40:08;;;;;;;54.77;30.13;;;0.90;99.90;;;;;;5000544;28;20586;-76
2021/03/02 04:42:34;;;;;;;54.90;29.90;;;0.80;99.90;;;;;;5001202;28;20444;-77
2021/03/02 04:45:02;;;;;;;66.07;31.20;;;0.90;99.90;;;;;;5010475;28;20463;-76
2021/03/02 04:47:28;;;;;;;57.17;29.33;;;0.90;99.90;;;;;;5016497;28;20447;-78
2021/03/02 04:49:54;;;;;;;63.17;30.70;;;0.90;99.90;;;;;;5015322;28;20463;-76
2021/03/02 04:52:21;;;;;;;67.07;31.77;;;0.80;99.90;;;;;;4998648;28;20456;-75
2021/03/02 04:54:47;;;;;;;60.70;31.10;;;1.00;99.90;;;;;;4997743;28;20761;-76
2021/03/02 04:57:13;;;;;;;58.60;30.80;;;0.90;99.90;;;;;;4994173;28;21146;-78
2021/03/02 04:59:40;;;;;;;63.53;31.80;;;1.00;99.90;;;;;;4993965;28;20594;-79
2021/03/02 05:02:07;;;;;;;63.80;32.43;;;1.10;99.90;;;;;;4996050;28;20531;-82
2021/03/02 05:04:33;;;;;;;58.17;32.00;;;1.00;99.90;;;;;;4995587;28;20502;-75
2021/03/02 05:07:00;;;;;;;59.10;30.43;;;1.10;99.90;;;;;;4996364;28;20541;-76
2021/03/02 05:09:26;;;;;;;59.60;29.47;;;1.00;99.90;;;;;;4994911;28;20512;-78
2021/03/02 05:11:53;;;;;;;66.23;33.73;;;1.00;99.90;;;;;;4993676;28;20543;-77
2021/03/02 05:14:20;;;;;;;62.40;32.43;;;0.90;99.90;;;;;;4993632;28;20483;-77
2021/03/02 05:16:46;;;;;;;67.40;32.60;;;1.00;99.90;;;;;;4987887;28;20505;-76
2021/03/02 05:19:13;;;;;;;74.40;34.07;;;1.00;99.90;;;;;;4993531;28;20460;-77
2021/03/02 05:21:39;;;;;;;58.77;31.87;;;1.00;99.90;;;;;;4993339;28;20527;-77
2021/03/02 05:24:07;;;;;;;62.03;32.13;;;0.80;99.90;;;;;;4993825;28;20527;-77
2021/03/02 05:26:33;;;;;;;64.77;31.20;;;0.70;99.90;;;;;;4993114;28;20942;-77
2021/03/02 05:28:59;;;;;;;63.03;32.93;;;0.90;99.90;;;;;;4994166;28;20551;-79
2021/03/02 05:31:26;;;;;;;64.77;31.43;;;0.70;99.90;;;;;;4992989;28;20511;-78
2021/03/02 05:33:52;;;;;;;68.57;32.60;;;0.90;99.90;;;;;;4978201;28;20519;-77
2021/03/02 05:36:19;;;;;;;62.00;30.57;;;0.90;99.90;;;;;;4993785;28;20461;-76
2021/03/02 05:38:46;;;;;;;68.73;32.70;;;0.90;99.90;;;;;;4993503;28;21035;-77
2021/03/02 05:41:12;;;;;;;68.13;33.50;;;0.90;99.90;;;;;;4988738;28;20448;-77
2021/03/02 05:43:41;;;;;;;60.97;34.33;;;0.90;99.90;;;;;;4997924;28;20492;-79
2021/03/02 05:46:08;;;;;;;62.87;33.03;;;0.80;99.90;;;;;;5002494;28;20504;-79
2021/03/02 05:48:34;;;;;;;61.33;32.00;;;0.80;99.90;;;;;;5013265;28;20448;-84
2021/03/02 05:51:01;;;;;;;60.77;31.20;;;0.90;99.90;;;;;;5003886;28;21021;-81
2021/03/02 05:53:28;;;;;;;60.97;30.57;;;0.80;99.90;;;;;;4993010;28;20444;-77
2021/03/02 05:55:54;;;;;;;68.33;33.03;;;0.90;99.90;;;;;;4991646;28;20506;-77
2021/03/02 05:58:21;;;;;;;74.80;35.40;;;1.00;99.90;;;;;;4994654;28;20456;-80
2021/03/02 06:00:47;;;;;;;70.97;34.83;;;1.00;99.90;;;;;;4992963;28;20801;-77
2021/03/02 06:03:14;;;;;;;71.73;32.30;;;1.00;99.90;;;;;;4992827;28;20456;-76
2021/03/02 06:05:40;;;;;;;67.80;33.03;;;1.00;99.90;;;;;;4992856;28;20511;-77
2021/03/02 06:08:08;;;;;;;67.43;32.80;;;1.10;99.90;;;;;;4991926;28;20604;-80
2021/03/02 06:10:36;;;;;;;61.67;32.77;;;1.20;99.90;;;;;;4991890;28;20456;-77
2021/03/02 06:13:03;;;;;;;63.37;33.93;;;1.00;99.90;;;;;;4992571;28;20466;-80
2021/03/02 06:15:30;;;;;;;70.13;34.77;;;1.00;99.90;;;;;;4993463;28;20489;-75
2021/03/02 06:18:10;;;;;;;61.37;31.77;;;1.00;99.90;;;;;;4993203;28;21106;-76
2021/03/02 06:20:37;;;;;;;63.87;31.37;;;1.00;99.90;;;;;;4987791;28;20989;-77
2021/03/02 06:23:24;;;;;;;62.07;31.73;;;1.10;99.90;;;;;;5014699;28;20994;-76
2021/03/02 06:25:52;;;;;;;62.33;32.97;;;1.30;99.90;;;;;;5015372;28;20443;-75
2021/03/02 06:28:38;;;;;;;65.60;33.00;;;1.50;99.90;;;;;;5015994;28;20539;-76
2021/03/02 06:31:05;;;;;;;59.13;32.00;;;1.50;98.80;;;;;;5013352;28;20970;-77
2021/03/02 06:33:31;;;;;;;63.63;31.27;;;1.50;99.80;;;;;;5013859;28;20455;-76
2021/03/02 06:35:58;;;;;;;62.33;31.93;;;1.60;98.70;;;;;;5014120;28;20985;-76
2021/03/02 06:38:32;;;;;;;60.70;31.97;;;1.70;97.40;;;;;;5014368;28;20447;-76
2021/03/02 06:41:00;;;;;;;59.00;32.30;;;1.80;97.50;;;;;;5003061;28;20460;-76
2021/03/02 06:43:32;;;;;;;56.23;30.30;;;2.00;95.00;;;;;;4994019;28;21039;-77
2021/03/02 06:45:59;;;;;;;54.27;28.83;;;2.00;93.80;;;;;;5001218;28;21006;-76
2021/03/02 06:48:25;;;;;;;59.20;30.50;;;2.10;94.10;;;;;;5007182;28;20448;-76
2021/03/02 06:50:52;;;;;;;53.70;29.87;;;2.20;93.00;;;;;;4994243;28;20487;-77
2021/03/02 06:53:20;;;;;;;54.47;29.07;;;2.10;92.60;;;;;;4994381;28;20967;-77
2021/03/02 06:55:50;;;;;;;55.83;29.37;;;2.20;92.60;;;;;;4983805;28;20456;-74
2021/03/02 06:58:24;;;;;;;49.63;29.70;;;2.20;91.80;;;;;;4979936;28;20449;-77
2021/03/02 07:00:53;;;;;;;56.08;30.90;;;2.30;91.20;;;;;;4994137;28;20857;-79
2021/03/02 07:03:30;;;;;;;51.20;28.87;;;2.40;91.00;;;;;;4999237;28;20425;-75
2021/03/02 07:06:02;;;;;;;50.03;27.63;;;2.40;90.80;;;;;;4993310;28;20442;-77
2021/03/02 07:08:29;;;;;;;46.93;26.50;;;2.40;90.40;;;;;;4996145;28;20462;-77
2021/03/02 07:10:56;;;;;;;45.80;26.37;;;2.50;89.80;;;;;;4998016;28;21034;-78
2021/03/02 07:13:23;;;;;;;44.87;26.07;;;2.50;88.40;;;;;;4996098;28;20456;-79
2021/03/02 07:15:53;;;;;;;51.73;27.77;;;2.50;87.90;;;;;;4995913;28;20467;-76
2021/03/02 07:18:21;;;;;;;51.17;28.50;;;2.60;87.10;;;;;;4994815;28;20483;-77
2021/03/02 07:20:50;;;;;;;50.83;26.70;;;2.70;88.00;;;;;;4993957;28;20441;-80
2021/03/02 07:23:21;;;;;;;47.20;25.47;;;2.80;86.10;;;;;;4994765;28;20899;-75
2021/03/02 07:25:50;;;;;;;49.77;26.23;;;2.90;86.60;;;;;;4994948;28;20963;-75
2021/03/02 07:28:19;;;;;;;46.10;26.73;;;3.00;85.70;;;;;;4991607;28;20579;-76
2021/03/02 07:30:48;;;;;;;41.93;25.50;;;3.00;84.50;;;;;;4992193;28;20518;-73
2021/03/02 07:33:14;;;;;;;64.67;29.53;;;3.10;83.50;;;;;;4993693;28;20498;-72
2021/03/02 07:35:41;;;;;;;49.60;27.33;;;3.20;83.00;;;;;;4989592;28;20448;-73
2021/03/02 07:38:21;;;;;;;52.27;26.77;;;3.20;82.40;;;;;;4991830;28;20480;-75
2021/03/02 07:40:49;;;;;;;44.27;24.30;;;3.20;81.80;;;;;;4991072;28;20479;-72
2021/03/02 07:43:27;;;;;;;49.00;27.10;;;3.20;81.80;;;;;;4992839;28;20479;-72
2021/03/02 07:45:55;;;;;;;44.00;25.13;;;3.40;81.80;;;;;;4992344;28;20795;-73
2021/03/02 07:48:26;;;;;;;43.63;26.97;;;3.50;81.00;;;;;;4988834;28;20491;-73
2021/03/02 07:51:15;;;;;;;51.60;30.00;;;3.70;80.50;;;;;;4992127;28;20922;-73
2021/03/02 07:53:42;;;;;;;43.73;26.20;;;3.80;80.20;;;;;;4989799;28;20469;-72
2021/03/02 07:56:21;;;;;;;48.93;28.17;;;3.70;79.60;;;;;;4992502;28;20823;-75
2021/03/02 07:59:20;;;;;;;48.03;27.10;;;3.90;79.50;;;;;;4996286;28;20521;-79
2021/03/02 08:02:14;;;;;;;49.90;26.43;;;4.00;79.20;;;;;;5008940;28;20451;-80
2021/03/02 08:04:41;;;;;;;45.37;25.97;;;4.00;78.30;;;;;;5014511;28;20454;-78
2021/03/02 08:07:22;;;;;;;45.30;27.97;;;4.20;78.20;;;;;;5005366;28;20502;-78
2021/03/02 08:09:50;;;;;;;43.93;26.10;;;4.40;77.90;;;;;;4997272;28;20514;-77
2021/03/02 08:12:31;;;;;;;42.10;25.47;;;4.60;77.60;;;;;;5009407;28;20491;-78
2021/03/02 08:14:59;;;;;;;44.97;25.53;;;4.70;76.70;;;;;;5006374;28;20534;-78
2021/03/02 08:17:27;;;;;;;40.47;26.43;;;4.80;76.40;;;;;;5012156;28;20522;-79
2021/03/02 08:20:05;;;;;;;44.27;25.67;;;5.00;76.00;;;;;;5010307;28;20460;-79
2021/03/02 08:22:49;;;;;;;40.47;27.40;;;5.20;75.50;;;;;;4984254;28;20465;-78
2021/03/02 08:25:30;;;;;;;39.90;24.70;;;5.30;74.70;;;;;;5008948;28;20459;-78
2021/03/02 08:28:03;;;;;;;39.90;24.63;;;5.40;74.30;;;;;;5008659;28;20835;-78
2021/03/02 08:30:35;;;;;;;41.00;25.33;;;5.60;74.30;;;;;;5009158;28;20469;-78
2021/03/02 08:33:05;;;;;;;39.87;26.50;;;5.60;73.80;;;;;;5005792;28;20453;-78
2021/03/02 08:35:35;;;;;;;40.93;25.43;;;5.70;73.30;;;;;;5002883;28;20451;-78
2021/03/02 08:38:03;;;;;;;37.90;23.17;;;5.80;73.10;;;;;;5006258;28;20488;-77
2021/03/02 08:40:48;;;;;;;36.57;23.40;;;5.80;73.00;;;;;;5003377;28;20475;-78
2021/03/02 08:43:18;;;;;;;37.60;23.87;;;5.90;72.50;;;;;;5001946;28;20465;-79
2021/03/02 08:45:47;;;;;;;41.67;24.63;;;6.10;72.60;;;;;;4997177;28;20956;-78
2021/03/02 08:48:16;;;;;;;39.50;25.20;;;6.20;71.90;;;;;;4998768;28;20469;-82
2021/03/02 08:50:43;;;;;;;37.83;24.70;;;6.40;72.00;;;;;;5002584;28;20483;-82
2021/03/02 08:53:31;;;;;;;33.90;22.90;;;6.60;71.60;;;;;;5007757;28;20464;-80
2021/03/02 08:55:59;;;;;;;38.33;25.60;;;6.80;71.00;;;;;;4999953;28;20534;-81
2021/03/02 08:58:27;;;;;;;34.88;26.00;;;6.80;70.20;;;;;;5008625;28;20491;-77
2021/03/02 09:01:02;;;;;;;35.75;28.70;;;6.90;70.00;;;;;;4998194;28;20515;-80
2021/03/02 09:03:30;;;;;;;39.10;25.57;;;7.00;69.80;;;;;;5007196;28;20253;-81
2021/03/02 09:06:17;;;;;;;33.80;23.10;;;7.20;69.00;;;;;;5005561;28;20462;-80
2021/03/02 09:08:55;;;;;;;33.77;23.40;;;7.40;68.70;;;;;;5008125;28;20458;-81
2021/03/02 09:11:26;;;;;;;36.03;23.63;;;7.40;68.50;;;;;;5016697;28;20477;-81
2021/03/02 09:13:53;;;;;;;37.23;23.20;;;7.50;67.80;;;;;;5010331;28;20466;-81
2021/03/02 09:16:25;;;;;;;37.23;22.60;;;7.60;67.50;;;;;;5002199;28;20518;-81
2021/03/02 09:19:03;;;;;;;35.50;24.00;;;7.70;67.60;;;;;;5003566;28;20477;-80
2021/03/02 09:21:30;;;;;;;35.65;24.42;;;7.70;66.90;;;;;;5001899;28;21016;-81
2021/03/02 09:23:57;;;;;;;32.07;23.80;;;7.50;66.50;;;;;;5003882;28;20197;-83
2021/03/02 09:26:25;;;;;;;33.43;22.50;;;7.50;66.60;;;;;;5006041;28;20510;-81
2021/03/02 09:28:54;;;;;;;41.57;23.90;;;7.80;66.60;;;;;;5010302;28;20478;-81
2021/03/02 09:31:21;;;;;;;39.03;23.40;;;7.80;65.80;;;;;;5008736;28;20476;-85
2021/03/02 09:33:50;;;;;;;28.90;20.10;;;8.10;65.80;;;;;;4999748;28;20457;-82
2021/03/02 09:36:18;;;;;;;31.17;20.52;;;8.10;64.10;;;;;;5003232;28;20550;-82
2021/03/02 09:38:46;;;;;;;30.73;21.30;;;8.20;63.80;;;;;;5001918;28;20255;-81
2021/03/02 09:41:29;;;;;;;30.20;20.67;;;8.60;63.60;;;;;;5012253;28;20453;-82
2021/03/02 09:43:55;;;;;;;28.50;22.77;;;8.40;62.80;;;;;;5011626;28;20498;-86
2021/03/02 09:46:42;;;;;;;27.90;20.10;;;8.80;62.90;;;;;;5004448;28;20191;-88
2021/03/02 09:49:12;;;;;;;41.00;20.90;;;8.50;61.50;;;;;;4999461;28;20459;-86
2021/03/02 09:54:26;;;;;;;29.40;18.53;;;9.10;61.00;;;;;;5005546;28;20482;-84
2021/03/02 09:56:58;;;;;;;25.70;18.17;;;8.90;59.80;;;;;;5002355;28;20520;-86
2021/03/02 09:59:26;;;;;;;27.57;18.80;;;9.30;60.50;;;;;;5008982;28;20466;-85
2021/03/02 10:01:57;;;;;;;24.83;17.50;;;9.50;59.40;;;;;;5011937;28;20550;-87
2021/03/02 10:04:25;;;;;;;28.30;19.23;;;9.20;58.60;;;;;;5010683;28;20510;-87
2021/03/02 10:07:11;;;;;;;25.00;18.60;;;9.30;58.40;;;;;;5006522;28;20450;-87
2021/03/02 10:09:38;;;;;;;27.33;17.90;;;9.40;58.10;;;;;;4994858;28;20491;-89
2021/03/02 10:12:10;;;;;;;24.90;16.27;;;9.60;57.60;;;;;;4995889;28;20459;-88
2021/03/02 10:14:39;;;;;;;27.47;16.40;;;9.80;57.30;;;;;;5006930;28;20481;-89
2021/03/02 10:17:07;;;;;;;23.43;16.20;;;10.10;56.10;;;;;;5000273;28;20509;-88
2021/03/02 10:19:35;;;;;;;27.23;15.43;;;9.70;55.90;;;;;;5001895;28;20479;-87
2021/03/02 10:22:10;;;;;;;23.60;15.97;;;9.90;55.90;;;;;;5004487;28;20527;-80
2021/03/02 10:24:38;;;;;;;22.83;16.30;;;10.20;54.60;;;;;;4999839;28;20453;-79
2021/03/02 10:27:12;;;;;;;19.70;13.93;;;10.50;54.10;;;;;;5017347;28;20456;-79
2021/03/02 10:30:06;;;;;;;18.33;13.67;;;10.60;53.50;;;;;;4964677;29;20527;-80
2021/03/02 10:32:33;;;;;;;21.23;15.17;;;10.80;53.00;;;;;;4994411;28;20464;-88
2021/03/02 10:34:59;;;;;;;19.83;14.47;;;10.50;52.30;;;;;;5003384;28;20516;-80
2021/03/02 10:37:26;;;;;;;20.83;15.30;;;10.60;51.90;;;;;;4997748;28;20452;-74
2021/03/02 10:39:53;;;;;;;22.93;15.33;;;10.90;54.40;;;;;;4991664;28;20455;-79
2021/03/02 10:42:20;;;;;;;21.17;15.10;;;11.00;51.90;;;;;;4994916;28;20493;-78
2021/03/02 10:44:46;;;;;;;19.60;14.50;;;11.20;51.80;;;;;;4995430;28;20501;-81
2021/03/02 10:47:13;;;;;;;24.47;14.63;;;11.20;51.20;;;;;;4994761;28;20483;-81
2021/03/02 10:49:39;;;;;;;30.67;15.13;;;11.40;50.80;;;;;;5004085;28;20448;-85
2021/03/02 10:52:06;;;;;;;26.27;14.80;;;11.40;50.00;;;;;;5001572;28;20454;-86
2021/03/02 10:54:36;;;;;;;20.20;14.23;;;11.30;49.50;;;;;;4997887;28;20546;-84
2021/03/02 10:57:03;;;;;;;21.85;15.48;;;11.10;49.70;;;;;;4980077;28;20460;-82
2021/03/02 10:59:29;;;;;;;15.37;11.30;;;11.40;49.50;;;;;;5002768;28;20203;-82
2021/03/02 11:01:57;;;;;;;17.17;13.13;;;11.30;47.80;;;;;;5000781;28;20519;-81
2021/03/02 11:04:23;;;;;;;21.70;13.30;;;11.50;48.40;;;;;;5007389;28;20469;-78
2021/03/02 11:06:50;;;;;;;19.97;14.77;;;11.10;48.50;;;;;;4992146;28;20745;-79
2021/03/02 11:09:17;;;;;;;17.58;13.90;;;11.60;49.20;;;;;;4994440;28;21028;-79
2021/03/02 11:11:44;;;;;;;19.00;13.57;;;11.80;48.80;;;;;;4997513;28;20210;-78
2021/03/02 11:14:10;;;;;;;19.27;13.30;;;11.80;48.40;;;;;;4993564;28;20454;-79
2021/03/02 11:16:37;;;;;;;20.30;12.50;;;12.20;48.50;;;;;;5000731;28;20571;-82
2021/03/02 11:19:03;;;;;;;21.55;15.18;;;12.30;48.10;;;;;;4997455;28;20458;-80
2021/03/02 11:21:29;;;;;;;15.50;11.43;;;12.20;48.00;;;;;;4995099;28;20208;-79
2021/03/02 11:23:56;;;;;;;15.23;12.97;;;12.10;47.00;;;;;;4995670;28;20522;-79
2021/03/02 11:26:22;;;;;;;16.97;12.53;;;12.10;47.70;;;;;;5000075;28;20447;-77
2021/03/02 11:28:49;;;;;;;34.43;14.53;;;12.20;47.40;;;;;;4999135;28;20487;-79
2021/03/02 11:31:16;;;;;;;16.10;13.03;;;12.50;47.60;;;;;;4996186;28;20503;-80
2021/03/02 11:33:42;;;;;;;22.23;13.47;;;12.40;47.20;;;;;;4997030;28;20456;-80
2021/03/02 11:36:09;;;;;;;25.67;13.53;;;12.20;47.40;;;;;;4991912;28;20446;-80
2021/03/02 11:38:35;;;;;;;20.27;12.73;;;12.60;47.50;;;;;;4994102;28;20462;-81
2021/03/02 11:41:03;;;;;;;16.23;11.50;;;12.60;46.90;;;;;;4989819;28;20456;-82
2021/03/02 11:43:30;;;;;;;16.20;12.07;;;12.70;46.60;;;;;;4997238;28;20484;-83
2021/03/02 11:45:58;;;;;;;14.00;11.73;;;12.60;46.50;;;;;;5002573;28;20451;-80
2021/03/02 11:48:24;;;;;;;14.75;12.85;;;12.70;46.10;;;;;;4986881;28;20449;-84
2021/03/02 11:50:51;;;;;;;16.03;12.30;;;12.70;46.00;;;;;;4987501;28;20649;-77
2021/03/02 11:53:18;;;;;;;16.37;11.97;;;12.80;46.00;;;;;;5002473;28;20444;-86
2021/03/02 11:55:44;;;;;;;25.77;11.97;;;13.00;46.10;;;;;;5005251;28;20455;-82
2021/03/02 11:58:13;;;;;;;14.50;10.80;;;13.20;46.10;;;;;;5002804;28;20886;-83
2021/03/02 12:00:39;;;;;;;14.67;9.83;;;13.10;45.40;;;;;;5002691;28;20449;-82
2021/03/02 12:03:07;;;;;;;14.80;9.37;;;13.30;44.00;;;;;;5012235;28;20455;-83
2021/03/02 12:05:33;;;;;;;12.13;7.10;;;13.40;43.30;;;;;;5019710;28;20459;-80
2021/03/02 12:08:00;;;;;;;13.37;7.00;;;13.60;42.10;;;;;;5001175;28;20451;-77
2021/03/02 12:10:26;;;;;;;12.73;7.82;;;13.70;41.40;;;;;;5010687;28;20454;-77
2021/03/02 12:12:53;;;;;;;18.10;10.70;;;13.60;42.20;;;;;;5016389;28;20224;-83
2021/03/02 12:15:19;;;;;;;8.23;7.10;;;13.70;43.30;;;;;;5019531;28;20479;-86
2021/03/02 12:17:46;;;;;;;8.70;6.40;;;13.70;40.10;;;;;;5012659;28;20489;-82
2021/03/02 12:20:13;;;;;;;24.83;9.23;;;13.90;40.30;;;;;;4998555;28;20452;-73
2021/03/02 12:22:40;;;;;;;24.67;8.05;;;13.90;40.10;;;;;;5001653;28;20459;-79
2021/03/02 12:25:08;;;;;;;14.70;7.43;;;13.80;39.60;;;;;;5007648;28;20198;-79
2021/03/02 12:27:35;;;;;;;9.90;6.70;;;13.70;39.30;;;;;;4994456;28;20464;-79
2021/03/02 12:30:01;;;;;;;10.45;7.10;;;13.70;39.30;;;;;;4999655;28;20859;-78
2021/03/02 12:32:27;;;;;;;7.47;6.67;;;13.70;39.40;;;;;;5001508;28;20644;-76
2021/03/02 12:34:54;;;;;;;13.63;6.50;;;13.70;39.10;;;;;;4992814;28;20975;-76
2021/03/02 12:37:22;;;;;;;7.87;6.60;;;13.80;38.70;;;;;;5000397;28;20464;-76
2021/03/02 12:39:48;;;;;;;7.93;5.87;;;13.80;37.70;;;;;;5000202;28;20437;-78
2021/03/02 12:42:15;;;;;;;11.10;6.80;;;13.90;37.50;;;;;;4995772;28;20466;-80
2021/03/02 12:44:41;;;;;;;11.37;6.70;;;14.00;38.10;;;;;;5001800;28;20456;-79
2021/03/02 12:47:08;;;;;;;10.30;6.17;;;14.10;38.30;;;;;;4992343;28;20463;-78